New Franken, Wisconsin
Current Conditions -  °F | °C
As of 7:34 AM on Friday 28 Nov 2014 (Local Time) from KGRB Reporting Station
Light Snow Light Snow  
Wind Chill:   Ceiling: 2600
Heat Index: 13°   Visibility: 1.2mi
Dew Point:   Wind: 7mph
Humidity: 81%   Direction: 170°S
Pressure: 30.23"   Gusts: NA
Location:  44.53°N, 87.83°W
Report Text: KGRB 281334Z 17006KT 1 1/4SM -SN OVC026 M11/M13 A3023 RMK AO2 SNB05 P0000 T11061133
Loading
Personal Weather Stations






























Interactive Weather Map New forecast layout! Learn more

10-Day Weather Forecast

Advertisements
Track Severe Weather on mobile